2ND9 weather

Brekhus Field
Norma, North Dakota, United States

Public forecast

Using degrees Fahrenheit for public forecast. Weather courtesy of forecast.io.

Closest aviation weather report (METAR) to Brekhus Field

Closest report is Minot Air Force Base, 32.7 nm (60.6 km) SE. Retrieved 2020/01/29 14:04 UTC (17 minutes ago):

KMIB 291404Z 00000KT 5SM BR BKN002 OVC009 M05/M06 A3004 RMK AO2A SLP202

Closest aviation forecast (TAF) to Brekhus Field

Closest forecast is Minot Air Force Base, 32.7 nm (60.6 km) SE. Retrieved 2020/01/29 10:00 UTC (4 hours ago):

TAF COR KMIB 291045Z 2910/3015 VRB06KT 1600 BR OVC003 QNH3000INS TEMPO 2910/2918 0800 FZFG BECMG 2917/2918 VRB06KT 8000 BR OVC005 QNH3001INS BECMG 2923/2924 24006KT 9000 BR OVC004 QNH2987INS TX00/2921Z TNM04/2915Z